Flight Track Log - Related Links

Times and Time Zones

All times are in EDT time to prevent confusion due to time zone crossing. See the SWA1149 flight status page for this flight to view local times or setup timezone preferences in your user account.

Time Position Orientation Groundspeed Altitude Reporting Facility
EDT Latitude Longitude Course Direction KTS MPH feet Rate Location/Type
09:31PM 32.8333 -96.8333 188° South 160 184 1,500  Level Dallas / Fort Worth TRACON
09:36PM 32.5464 -96.8786 210° Southwest 313 360 11,000 2,025 Climbing FAA TRACON SMA TRACON (SMA)
09:36PM 32.4872 -96.9183 210° Southwest 356 410 12,400 2,222 Climbing FAA TRACON SMA TRACON (SMA)
09:37PM 32.4325 -96.9553 209° Southwest 366 421 14,000 2,734 Climbing FAA TRACON SMA TRACON (SMA)
09:38PM 32.3703 -96.9969 193° South 370 426 16,000 2,925 Climbing FAA TRACON SMA TRACON (SMA)
09:38PM 32.3011 -97.0161 183° South 370 426 17,900 2,519 Climbing FAA TRACON SMA TRACON (SMA)
09:39PM 32.2381 -97.0206 185° South 368 423 19,400 2,100 Climbing FAA TRACON SMA TRACON (SMA)
09:40PM 32.1653 -97.0278 184° South 380 437 20,700 1,725 Climbing FAA TRACON SMA TRACON (SMA)
09:40PM 32.0906 -97.0339 184° South 392 451 21,700 975 Climbing FAA TRACON SMA TRACON (SMA)
09:41PM 32.0211 -97.0394 183° South 408 470 22,000 225 Climbing FAA TRACON SMA TRACON (SMA)
09:42PM 31.9417 -97.0444 185° South 412 474 22,000  Level FAA TRACON SMA TRACON (SMA)
09:43PM 31.7639 -97.0639 183° South 411 473 22,000  Level Fort Worth Center
09:44PM 31.6514 -97.0717 185° South 411 473 22,000  Level Fort Worth Center
09:45PM 31.5364 -97.0844 197° South 416 479 22,000  Level Fort Worth Center
09:46PM 31.4378 -97.1194 199° South 411 473 22,000 -158 Level Houston Center
09:47PM 31.3317 -97.1619 199° South 405 466 21,700 -650 Descending Houston Center
09:48PM 31.2236 -97.2047 198° South 410 472 20,700 -1,250 Descending Houston Center
09:49PM 31.1197 -97.2450 198° South 410 472 19,200 -1,450 Descending Houston Center
09:50PM 31.0222 -97.2831 198° South 388 447 17,800 1,400 Descending Houston Center
09:51PM 30.9228 -97.3208 198° South 374 430 22,000 -2,400 Climbing Houston Center
09:52PM 30.8189 -97.3611 208° Southwest 380 437 13,000 -5,300 Descending Houston Center
09:53PM 30.7353 -97.4119 216° Southwest 360 414 11,400 -1,500 Descending Houston Center
09:54PM 30.6594 -97.4750 215° Southwest 346 398 10,000 -1,350 Descending Houston Center
09:55PM 30.5925 -97.5292 211° Southwest 318 366 8,700 -1,550 Descending Houston Center
09:56PM 30.5236 -97.5781 200° South 296 341 6,900 -1,664 Descending Houston Center
09:57PM 30.4536 -97.6078 202° Southwest 276 318 5,400 -1,500 Descending Houston Center
09:58PM 30.3939 -97.6356 202° Southwest 247 284 3,900 -1,388 Descending Houston Center
09:59PM 30.3406 -97.6611 198° South 217 250 2,600 -900 Descending Houston Center
10:00PM 30.2961 -97.6778 184° South 186 214 2,100 -550 Descending Houston Center
10:01PM 30.2606 -97.6806 180° South 157 181 1,500 -650 Descending Houston Center
10:02PM 30.2208 -97.6806 180° South 145 167 800 -500 Descending Houston Center
10:03PM 30.1856 -97.6808 180° South 140 161 500 -300 Descending Houston Center

Login

Don't have an account? Register now (free) for customized features, flight alerts, and more!